Time;durP1;ratioP1;P1;durP2;ratioP2;P2;SDS_P1;SDS_P2;PMS_P1;PMS_P2;Temp;Humidity;BMP_temperature;BMP_pressure;BME280_temperature;BME280_humidity;BME280_pressure;Samples;Min_cycle;Max_cycle;Signal;HPM_P1;HPM_P2
2021/04/10 00:00:20;;;;;;;2.90;2.70;;;;;;;6.96;77.40;100153.41;4993671;28;20276;-79
2021/04/10 00:02:50;;;;;;;2.83;2.63;;;;;;;6.93;77.51;100145.81;4993708;28;20184;-77
2021/04/10 00:05:18;;;;;;;5.10;3.77;;;;;;;6.83;77.27;100157.66;4993415;28;20201;-76
2021/04/10 00:07:43;;;;;;;3.93;2.83;;;;;;;6.67;77.69;100167.91;4993606;28;20264;-78
2021/04/10 00:10:09;;;;;;;3.00;2.77;;;;;;;6.53;78.38;100165.13;4993718;28;20268;-78
2021/04/10 00:12:35;;;;;;;2.87;2.60;;;;;;;6.35;79.37;100168.56;4993436;28;20657;-78
2021/04/10 00:15:01;;;;;;;3.43;2.63;;;;;;;6.17;79.71;100166.63;4991567;28;20242;-78
2021/04/10 00:17:26;;;;;;;2.60;2.40;;;;;;;6.13;80.37;100171.03;4993355;28;20204;-78
2021/04/10 00:19:51;;;;;;;4.27;3.40;;;;;;;6.06;80.68;100159.69;4993180;28;20178;-78
2021/04/10 00:22:17;;;;;;;2.30;2.20;;;;;;;5.99;80.78;100167.38;5008278;28;20177;-78
2021/04/10 00:24:42;;;;;;;3.40;3.07;;;;;;;5.99;81.28;100165.47;4993247;28;20541;-78
2021/04/10 00:27:07;;;;;;;7.17;3.73;;;;;;;6.04;81.39;100162.69;4993166;28;20275;-78
2021/04/10 00:29:33;;;;;;;3.53;3.23;;;;;;;6.06;81.52;100152.38;4993438;28;20185;-78
2021/04/10 00:31:58;;;;;;;6.27;3.80;;;;;;;6.08;81.72;100154.81;4993053;28;20175;-78
2021/04/10 00:34:23;;;;;;;4.20;3.80;;;;;;;6.07;81.64;100145.84;4992832;28;20182;-78
2021/04/10 00:36:49;;;;;;;7.07;3.90;;;;;;;6.05;81.69;100142.63;4992981;28;20181;-79
2021/04/10 00:39:14;;;;;;;10.73;5.13;;;;;;;6.03;81.77;100133.97;4993215;28;20756;-78
2021/04/10 00:41:39;;;;;;;7.17;6.20;;;;;;;6.10;81.82;100128.22;4993168;28;20601;-78
2021/04/10 00:44:05;;;;;;;5.23;4.40;;;;;;;6.10;81.74;100123.59;4992758;28;20264;-76
2021/04/10 00:46:30;;;;;;;7.80;3.97;;;;;;;6.08;81.79;100131.22;4992629;28;20863;-78
2021/04/10 00:48:55;;;;;;;5.93;5.43;;;;;;;6.08;81.79;100123.09;4992931;28;20188;-78
2021/04/10 00:51:21;;;;;;;7.20;6.13;;;;;;;5.90;82.32;100123.81;4993173;28;20169;-78
2021/04/10 00:53:47;;;;;;;5.27;4.77;;;;;;;5.95;82.56;100124.59;4992641;28;20173;-79
2021/04/10 00:56:12;;;;;;;5.57;4.90;;;;;;;6.14;82.49;100134.66;4992607;28;20223;-78
2021/04/10 00:58:38;;;;;;;4.20;3.80;;;;;;;6.01;81.59;100130.75;4992608;28;20255;-77
2021/04/10 01:01:04;;;;;;;4.83;4.33;;;;;;;6.04;82.12;100126.66;4992577;28;20657;-78
2021/04/10 01:03:30;;;;;;;5.30;4.77;;;;;;;5.57;83.34;100129.00;4992329;28;20181;-78
2021/04/10 01:05:55;;;;;;;4.87;4.47;;;;;;;5.79;83.77;100130.44;4992757;28;20184;-79
2021/04/10 01:08:21;;;;;;;4.00;3.60;;;;;;;6.01;82.66;100132.66;4992520;28;20169;-78
2021/04/10 01:10:46;;;;;;;4.43;3.77;;;;;;;6.10;82.68;100129.03;4992428;28;20178;-77
2021/04/10 01:13:26;;;;;;;4.27;3.90;;;;;;;6.13;82.41;100122.22;4992339;28;20181;-78
2021/04/10 01:16:01;;;;;;;3.97;3.60;;;;;;;6.01;82.46;100125.31;4992138;28;20259;-78
2021/04/10 01:18:40;;;;;;;3.70;3.40;;;;;;;6.18;82.26;100119.44;4992384;28;20634;-78
2021/04/10 01:21:14;;;;;;;3.47;2.93;;;;;;;6.26;81.80;100113.38;4992442;28;20181;-76
2021/04/10 01:24:11;;;;;;;4.37;4.00;;;;;;;6.02;82.05;100118.00;4992153;28;20181;-79
2021/04/10 01:26:52;;;;;;;4.67;3.57;;;;;;;6.08;82.32;100112.25;4991271;28;20660;-78
2021/04/10 01:29:21;;;;;;;4.30;3.77;;;;;;;5.81;82.96;100103.84;4992127;28;20607;-78
2021/04/10 01:31:50;;;;;;;4.67;4.37;;;;;;;5.56;84.04;100115.75;4992030;28;20207;-79
2021/04/10 01:34:24;;;;;;;6.00;4.33;;;;;;;5.64;84.20;100109.69;4992137;28;20178;-79
2021/04/10 01:36:51;;;;;;;4.33;3.93;;;;;;;5.76;84.32;100101.16;4991943;28;20177;-78
2021/04/10 01:39:18;;;;;;;4.10;3.73;;;;;;;6.04;83.33;100100.34;4991832;28;20280;-79
2021/04/10 01:41:48;;;;;;;3.70;3.33;;;;;;;6.01;83.21;100097.41;4991940;28;20181;-79
2021/04/10 01:44:15;;;;;;;4.57;4.17;;;;;;;6.16;82.83;100098.03;4992142;28;20177;-79
2021/04/10 01:46:41;;;;;;;5.47;3.07;;;;;;;6.29;82.33;100099.22;4992042;28;20532;-79
2021/04/10 01:49:08;;;;;;;3.20;2.90;;;;;;;6.35;81.57;100099.94;4990462;28;20189;-77
2021/04/10 01:51:36;;;;;;;4.47;4.00;;;;;;;6.34;81.72;100117.31;4991616;28;20181;-77
2021/04/10 01:54:03;;;;;;;4.53;4.17;;;;;;;6.31;82.07;100128.75;4991690;28;20181;-79
2021/04/10 01:56:34;;;;;;;4.10;3.80;;;;;;;6.32;81.95;100124.94;4991644;28;20177;-79
2021/04/10 01:59:01;;;;;;;3.17;2.97;;;;;;;6.15;81.74;100136.28;4991757;28;20335;-78
2021/04/10 02:01:28;;;;;;;3.70;3.40;;;;;;;6.23;82.10;100138.38;4991751;28;20192;-78
2021/04/10 02:03:54;;;;;;;3.50;3.20;;;;;;;6.37;81.71;100130.34;4991403;28;20483;-79
2021/04/10 02:06:20;;;;;;;4.87;4.47;;;;;;;6.42;81.65;100128.34;4991417;28;20181;-78
2021/04/10 02:08:47;;;;;;;5.50;3.97;;;;;;;6.46;81.17;100134.00;4991406;28;20177;-78
2021/04/10 02:11:15;;;;;;;3.73;3.43;;;;;;;6.47;81.14;100130.19;4991519;28;20262;-78
2021/04/10 02:13:42;;;;;;;4.73;4.13;;;;;;;6.46;80.66;100132.09;4991418;28;20519;-78
2021/04/10 02:16:07;;;;;;;4.27;3.40;;;;;;;6.45;81.38;100137.81;4991670;28;20177;-79
2021/04/10 02:18:34;;;;;;;3.97;3.63;;;;;;;6.44;81.42;100126.16;4991179;28;20255;-79
2021/04/10 02:21:05;;;;;;;4.23;3.80;;;;;;;6.45;81.57;100127.75;4991327;28;20188;-78
2021/04/10 02:23:31;;;;;;;4.63;4.23;;;;;;;6.49;81.77;100139.63;4991139;28;20272;-78
2021/04/10 02:25:59;;;;;;;7.27;3.60;;;;;;;6.55;81.42;100146.63;4991369;28;20180;-78
2021/04/10 02:28:25;;;;;;;4.30;4.00;;;;;;;6.57;80.71;100160.72;4991322;28;20212;-79
2021/04/10 02:30:50;;;;;;;3.80;3.43;;;;;;;6.57;80.69;100159.91;4991287;28;20217;-78
2021/04/10 02:33:27;;;;;;;4.37;3.90;;;;;;;6.53;80.80;100161.59;4991415;28;20212;-78
2021/04/10 02:35:56;;;;;;;4.17;3.77;;;;;;;6.46;81.45;100161.94;4991128;28;20173;-80
2021/04/10 02:38:24;;;;;;;3.83;3.20;;;;;;;6.48;82.16;100159.72;5007329;28;20205;-78
2021/04/10 02:41:07;;;;;;;4.27;3.97;;;;;;;6.52;82.13;100168.94;4995021;28;20197;-79
2021/04/10 02:43:37;;;;;;;4.27;3.97;;;;;;;6.46;82.51;100169.28;4995045;28;20253;-79
2021/04/10 02:46:04;;;;;;;4.90;3.80;;;;;;;6.42;82.81;100163.63;4995260;28;20217;-79
2021/04/10 02:48:54;;;;;;;3.13;2.83;;;;;;;6.53;82.71;100169.75;4994891;28;20670;-79
2021/04/10 02:51:20;;;;;;;4.70;4.30;;;;;;;6.31;82.93;100167.56;4994888;28;20181;-79
2021/04/10 02:53:47;;;;;;;4.50;4.10;;;;;;;5.80;83.93;100168.09;4994732;28;20192;-78
2021/04/10 02:56:15;;;;;;;4.47;4.07;;;;;;;5.45;85.85;100180.03;4994583;28;20181;-79
2021/04/10 02:58:45;;;;;;;4.07;3.63;;;;;;;5.20;86.96;100170.22;4994595;28;20312;-80
2021/04/10 03:01:11;;;;;;;12.30;4.60;;;;;;;5.47;86.94;100175.16;4994868;28;20224;-78
2021/04/10 03:03:36;;;;;;;3.90;3.60;;;;;;;5.76;86.92;100186.00;4994586;28;20257;-79
2021/04/10 03:06:03;;;;;;;3.47;2.90;;;;;;;5.92;85.86;100186.69;4994603;28;20483;-79
2021/04/10 03:08:29;;;;;;;6.27;3.27;;;;;;;6.02;85.87;100185.78;4994507;28;20185;-80
2021/04/10 03:10:54;;;;;;;4.23;3.83;;;;;;;5.76;86.28;100179.78;4994487;28;20173;-79
2021/04/10 03:13:22;;;;;;;5.30;4.43;;;;;;;5.28;87.44;100185.06;4994394;28;20270;-79
2021/04/10 03:15:52;;;;;;;3.80;3.50;;;;;;;5.33;87.95;100185.81;4994615;28;20332;-79
2021/04/10 03:18:18;;;;;;;3.60;3.20;;;;;;;5.68;87.57;100178.50;4994346;28;20234;-79
2021/04/10 03:20:44;;;;;;;4.60;4.07;;;;;;;5.86;87.27;100188.63;4994357;28;20252;-79
2021/04/10 03:23:10;;;;;;;4.10;3.80;;;;;;;5.90;86.92;100189.69;4994111;28;20173;-79
2021/04/10 03:25:35;;;;;;;6.40;3.50;;;;;;;5.52;87.17;100179.75;4994279;28;20180;-80
2021/04/10 03:28:02;;;;;;;3.97;3.50;;;;;;;5.75;86.93;100192.53;4994217;28;20632;-79
2021/04/10 03:30:28;;;;;;;3.17;2.93;;;;;;;5.93;86.91;100186.44;4994304;28;20259;-79
2021/04/10 03:32:54;;;;;;;3.47;3.17;;;;;;;5.65;86.38;100189.91;4994108;28;20393;-79
2021/04/10 03:35:26;;;;;;;3.93;3.63;;;;;;;5.33;88.22;100188.53;4994216;28;20185;-78
2021/04/10 03:37:51;;;;;;;8.43;4.03;;;;;;;5.23;88.55;100185.13;4993825;28;20213;-79
2021/04/10 03:40:17;;;;;;;2.83;2.53;;;;;;;4.71;90.29;100187.31;4993826;28;20296;-77
2021/04/10 03:42:44;;;;;;;3.33;3.03;;;;;;;4.63;90.94;100177.09;4993924;28;20173;-79
2021/04/10 03:45:15;;;;;;;4.53;3.03;;;;;;;4.59;91.78;100176.00;4993838;28;20588;-79
2021/04/10 03:47:41;;;;;;;3.70;3.33;;;;;;;4.71;92.13;100181.91;4993854;28;20270;-80
2021/04/10 03:50:07;;;;;;;3.37;3.07;;;;;;;4.76;91.51;100176.47;4992899;28;20714;-80
2021/04/10 03:52:33;;;;;;;3.57;3.27;;;;;;;4.76;91.59;100170.25;4993713;28;20181;-79
2021/04/10 03:54:58;;;;;;;3.23;2.30;;;;;;;4.85;91.93;100170.47;4993840;28;20556;-80
2021/04/10 03:57:24;;;;;;;5.00;2.70;;;;;;;4.80;92.11;100184.84;4993646;28;20283;-80
2021/04/10 03:59:49;;;;;;;7.60;3.23;;;;;;;4.90;91.95;100182.06;4993766;28;20243;-79
2021/04/10 04:02:15;;;;;;;4.83;3.00;;;;;;;4.93;91.27;100192.34;4993650;28;20170;-79
2021/04/10 04:04:40;;;;;;;4.43;3.77;;;;;;;4.83;91.88;100188.88;4993644;28;20279;-79
2021/04/10 04:07:06;;;;;;;6.07;3.83;;;;;;;4.91;91.91;100185.56;4993434;28;20177;-79
2021/04/10 04:09:31;;;;;;;4.17;3.80;;;;;;;4.77;91.91;100188.94;4993590;28;20181;-79
2021/04/10 04:11:56;;;;;;;6.93;3.37;;;;;;;4.94;91.88;100187.75;4993409;28;20181;-79
2021/04/10 04:14:22;;;;;;;3.50;2.73;;;;;;;4.67;91.75;100199.00;4993468;28;20205;-78
2021/04/10 04:16:47;;;;;;;7.03;4.10;;;;;;;4.66;92.82;100200.06;5008318;28;20804;-80
2021/04/10 04:19:15;;;;;;;3.90;3.53;;;;;;;4.67;92.89;100202.50;4993320;28;20204;-78
2021/04/10 04:21:40;;;;;;;3.50;3.20;;;;;;;4.52;94.04;100197.16;4993122;28;20181;-77
2021/04/10 04:24:06;;;;;;;4.33;3.67;;;;;;;4.43;94.30;100194.22;4993149;28;20386;-78
2021/04/10 04:26:31;;;;;;;4.63;3.27;;;;;;;4.33;95.15;100202.34;4993304;28;20672;-78
2021/04/10 04:28:56;;;;;;;6.80;4.27;;;;;;;4.37;95.55;100205.34;4993100;28;20197;-77
2021/04/10 04:31:22;;;;;;;4.20;3.33;;;;;;;4.48;95.26;100198.78;4993098;28;20200;-78
2021/04/10 04:33:47;;;;;;;4.70;3.37;;;;;;;4.42;95.55;100208.81;4992823;28;20192;-79
2021/04/10 04:36:13;;;;;;;4.43;3.33;;;;;;;4.59;95.18;100222.00;4993167;28;20181;-80
2021/04/10 04:38:38;;;;;;;6.50;4.03;;;;;;;4.83;94.82;100221.38;4992977;28;20209;-79
2021/04/10 04:41:03;;;;;;;3.40;2.80;;;;;;;4.77;94.08;100225.97;4993074;28;20221;-79
2021/04/10 04:43:29;;;;;;;5.23;3.67;;;;;;;4.72;94.26;100226.81;4993148;28;20765;-78
2021/04/10 04:45:54;;;;;;;3.67;2.83;;;;;;;4.69;94.26;100227.38;4992929;28;20688;-78
2021/04/10 04:48:20;;;;;;;3.13;2.63;;;;;;;4.62;94.25;100221.44;4992782;28;20656;-77
2021/04/10 04:50:45;;;;;;;7.00;3.07;;;;;;;4.54;94.71;100230.16;4992815;28;20181;-76
2021/04/10 04:53:10;;;;;;;4.33;3.63;;;;;;;4.51;95.12;100236.13;4992639;28;20252;-77
2021/04/10 04:55:36;;;;;;;9.23;3.60;;;;;;;4.46;94.95;100231.53;4992701;28;20209;-77
2021/04/10 04:58:01;;;;;;;3.80;3.50;;;;;;;4.33;95.86;100231.28;4992474;28;20660;-78
2021/04/10 05:00:27;;;;;;;3.30;3.00;;;;;;;4.38;95.92;100228.59;4992540;28;20174;-78
2021/04/10 05:02:52;;;;;;;8.57;3.73;;;;;;;4.42;95.96;100235.88;4992383;28;20686;-78
2021/04/10 05:05:18;;;;;;;10.40;3.37;;;;;;;4.27;96.67;100227.81;4992508;28;20177;-76
2021/04/10 05:07:43;;;;;;;3.17;2.87;;;;;;;4.47;96.72;100232.31;4992502;28;20720;-78
2021/04/10 05:10:09;;;;;;;9.23;3.80;;;;;;;4.42;96.22;100243.19;4992369;28;20178;-77
2021/04/10 05:12:34;;;;;;;4.33;3.67;;;;;;;4.55;96.26;100253.41;4992229;28;20207;-76
2021/04/10 05:14:59;;;;;;;4.07;3.67;;;;;;;4.68;96.07;100260.94;4992340;28;20553;-75
2021/04/10 05:17:25;;;;;;;6.43;4.50;;;;;;;4.37;96.09;100259.44;4992278;28;20263;-78
2021/04/10 05:19:50;;;;;;;4.30;3.90;;;;;;;4.36;96.46;100263.22;4992121;28;20256;-78
2021/04/10 05:22:16;;;;;;;3.60;3.03;;;;;;;4.38;96.35;100255.63;4992200;28;20190;-79
2021/04/10 05:24:41;;;;;;;3.47;2.90;;;;;;;4.34;96.35;100260.78;4992271;28;20239;-78
2021/04/10 05:27:06;;;;;;;4.67;3.23;;;;;;;4.41;95.97;100272.13;4992131;28;20208;-78
2021/04/10 05:29:32;;;;;;;4.00;3.27;;;;;;;4.39;96.08;100271.59;4992010;28;20181;-76
2021/04/10 05:31:57;;;;;;;3.10;2.70;;;;;;;4.15;96.23;100274.06;4991938;28;20599;-79
2021/04/10 05:34:22;;;;;;;2.90;2.63;;;;;;;4.23;96.40;100274.59;4991948;28;20181;-79
2021/04/10 05:36:47;;;;;;;4.03;3.63;;;;;;;4.32;96.72;100276.47;4991885;28;20181;-77
2021/04/10 05:39:13;;;;;;;5.90;4.60;;;;;;;4.30;96.70;100285.94;4991686;28;20232;-77
2021/04/10 05:41:38;;;;;;;4.83;3.33;;;;;;;4.40;96.25;100289.44;4991915;28;20288;-77
2021/04/10 05:44:04;;;;;;;2.97;2.77;;;;;;;4.17;96.54;100284.59;4991849;28;20173;-76
2021/04/10 05:46:29;;;;;;;2.90;2.60;;;;;;;4.23;96.36;100296.22;4991849;28;20201;-76
2021/04/10 05:48:54;;;;;;;3.80;2.83;;;;;;;4.22;96.88;100294.63;4991769;28;20663;-79
2021/04/10 05:51:20;;;;;;;3.07;2.57;;;;;;;4.11;97.15;100300.03;4991787;28;20187;-77
2021/04/10 05:53:46;;;;;;;3.73;2.60;;;;;;;4.21;97.10;100303.81;4991701;28;20189;-79
2021/04/10 05:56:11;;;;;;;3.37;2.90;;;;;;;4.23;96.93;100312.47;4991697;28;20532;-77
2021/04/10 05:58:38;;;;;;;3.33;2.93;;;;;;;4.18;96.52;100305.94;4991838;28;20208;-77
2021/04/10 06:01:03;;;;;;;3.90;3.17;;;;;;;4.09;96.80;100306.78;4991569;28;20260;-77
2021/04/10 06:03:29;;;;;;;5.97;3.43;;;;;;;4.07;97.16;100307.06;4991763;28;20551;-79
2021/04/10 06:05:54;;;;;;;6.77;4.07;;;;;;;4.11;97.41;100313.53;4991631;28;20772;-78
2021/04/10 06:08:20;;;;;;;2.70;2.50;;;;;;;4.06;97.32;100308.16;4991581;28;20189;-79
2021/04/10 06:10:45;;;;;;;2.73;2.43;;;;;;;4.09;97.74;100307.59;4992046;28;20193;-78
2021/04/10 06:13:10;;;;;;;3.37;2.23;;;;;;;4.04;97.66;100314.88;4993495;28;20181;-78
2021/04/10 06:15:36;;;;;;;7.20;2.40;;;;;;;4.07;97.96;100315.19;4992383;28;20629;-78
2021/04/10 06:18:02;;;;;;;2.77;2.50;;;;;;;4.09;97.94;100320.31;4991308;28;20201;-78
2021/04/10 06:20:27;;;;;;;4.13;3.00;;;;;;;4.10;97.07;100324.63;4991469;28;20173;-79
2021/04/10 06:22:52;;;;;;;3.23;2.23;;;;;;;4.10;96.92;100322.75;4991235;28;20265;-78
2021/04/10 06:25:18;;;;;;;2.03;1.30;;;;;;;4.13;96.92;100335.72;4991321;28;20645;-79
2021/04/10 06:27:43;;;;;;;4.53;2.30;;;;;;;4.13;96.70;100327.59;4991319;28;20594;-77
2021/04/10 06:30:09;;;;;;;3.20;2.83;;;;;;;4.20;96.85;100321.94;4991072;28;20177;-78
2021/04/10 06:32:35;;;;;;;4.93;2.10;;;;;;;4.21;96.53;100328.97;4991150;28;20471;-79
2021/04/10 06:35:01;;;;;;;2.63;2.43;;;;;;;4.15;96.46;100330.03;4991240;28;20531;-73
2021/04/10 06:37:26;;;;;;;3.57;1.70;;;;;;;4.20;96.16;100329.22;4991133;28;20299;-73
2021/04/10 06:39:51;;;;;;;2.13;1.93;;;;;;;4.21;96.17;100333.56;4991171;28;20193;-74
2021/04/10 06:42:18;;;;;;;1.60;1.47;;;;;;;4.18;95.87;100343.81;4991109;28;20178;-72
2021/04/10 06:44:43;;;;;;;3.77;2.23;;;;;;;4.21;95.43;100337.06;4991107;28;20197;-75
2021/04/10 06:47:11;;;;;;;3.47;2.13;;;;;;;4.23;94.95;100348.41;4991061;28;20772;-72
2021/04/10 06:49:37;;;;;;;3.10;1.90;;;;;;;4.28;95.04;100344.88;4990840;28;20170;-77
2021/04/10 06:52:02;;;;;;;1.20;1.10;;;;;;;4.31;94.40;100345.16;4990977;28;20180;-75
2021/04/10 06:54:33;;;;;;;2.40;1.83;;;;;;;4.30;93.83;100340.00;4991023;28;20173;-75
2021/04/10 06:57:17;;;;;;;3.97;2.13;;;;;;;4.25;94.10;100345.44;4991046;28;20173;-72
2021/04/10 06:59:55;;;;;;;1.70;1.40;;;;;;;4.36;93.90;100353.28;4990895;28;20185;-77
2021/04/10 07:02:21;;;;;;;4.00;1.50;;;;;;;4.30;94.45;100351.66;4990885;28;20652;-73
2021/04/10 07:04:47;;;;;;;1.60;1.00;;;;;;;4.33;94.74;100361.91;4991040;28;20178;-74
2021/04/10 07:07:12;;;;;;;4.93;0.93;;;;;;;4.28;94.38;100350.31;4990984;28;20176;-73
2021/04/10 07:09:38;;;;;;;1.20;1.10;;;;;;;4.34;94.16;100355.44;4990882;28;20177;-73
2021/04/10 07:12:05;;;;;;;2.43;1.43;;;;;;;4.22;94.39;100362.22;4991009;28;20185;-73
2021/04/10 07:14:31;;;;;;;1.90;1.57;;;;;;;4.21;94.95;100371.41;4990490;28;20625;-75
2021/04/10 07:16:57;;;;;;;2.07;1.40;;;;;;;4.26;95.04;100360.59;4990850;28;20209;-75
2021/04/10 07:19:26;;;;;;;1.57;1.27;;;;;;;4.29;95.12;100365.44;4990717;28;20688;-75
2021/04/10 07:22:12;;;;;;;2.90;1.40;;;;;;;4.36;95.46;100368.69;5005760;28;20181;-73
2021/04/10 07:24:46;;;;;;;1.50;1.13;;;;;;;4.38;94.74;100380.06;4991001;28;20205;-74
2021/04/10 07:27:17;;;;;;;5.50;1.80;;;;;;;4.44;94.97;100379.75;5002591;28;20201;-73
2021/04/10 07:29:45;;;;;;;2.23;1.60;;;;;;;4.44;93.91;100385.16;5002105;28;20176;-74
2021/04/10 07:32:36;;;;;;;3.10;1.63;;;;;;;4.42;93.90;100391.94;5003673;28;20177;-76
2021/04/10 07:35:15;;;;;;;2.47;1.67;;;;;;;4.33;93.98;100394.38;5013684;28;20161;-74
2021/04/10 07:37:44;;;;;;;1.43;1.33;;;;;;;4.39;93.73;100395.19;5028778;28;20569;-77
2021/04/10 07:40:18;;;;;;;3.83;1.63;;;;;;;4.42;93.87;100392.75;5013471;28;20239;-77
2021/04/10 07:42:46;;;;;;;2.40;1.60;;;;;;;4.37;93.25;100392.75;5013589;28;20172;-73
2021/04/10 07:45:22;;;;;;;6.93;1.67;;;;;;;4.44;93.51;100390.56;5013556;28;20239;-74
2021/04/10 07:47:48;;;;;;;1.73;0.93;;;;;;;4.50;93.29;100399.53;5013370;28;20214;-74
2021/04/10 07:50:26;;;;;;;1.23;0.93;;;;;;;4.45;93.38;100397.59;5013504;28;20172;-73
2021/04/10 07:52:52;;;;;;;2.13;1.47;;;;;;;4.48;92.68;100394.38;5013234;28;20180;-72
2021/04/10 07:55:52;;;;;;;2.30;1.60;;;;;;;4.40;93.18;100394.91;5013325;28;20177;-73
2021/04/10 07:58:23;;;;;;;2.00;1.23;;;;;;;4.44;93.26;100398.69;5012853;28;20251;-73
2021/04/10 08:00:50;;;;;;;1.40;1.30;;;;;;;4.43;92.89;100399.78;5013591;28;20575;-72
2021/04/10 08:03:29;;;;;;;1.63;1.20;;;;;;;4.39;92.93;100401.41;5013019;28;20173;-76
2021/04/10 08:05:56;;;;;;;6.40;1.97;;;;;;;4.50;93.63;100409.53;5013197;28;20173;-74
2021/04/10 08:08:26;;;;;;;1.20;1.10;;;;;;;4.43;93.35;100407.88;5013339;28;20177;-72
2021/04/10 08:11:03;;;;;;;1.30;1.03;;;;;;;4.44;93.19;100416.81;5012947;28;20176;-72
2021/04/10 08:13:29;;;;;;;8.40;1.60;;;;;;;4.48;93.29;100420.59;5012813;28;20184;-75
2021/04/10 08:16:13;;;;;;;0.87;0.87;;;;;;;4.51;93.03;100416.56;5012902;28;20243;-73
2021/04/10 08:18:52;;;;;;;7.03;2.33;;;;;;;4.58;93.33;100419.78;5012656;28;20212;-73
2021/04/10 08:21:18;;;;;;;7.40;2.40;;;;;;;4.59;92.71;100416.00;5012849;28;20184;-72
2021/04/10 08:23:45;;;;;;;2.63;1.90;;;;;;;4.65;92.81;100412.22;5012762;28;20168;-72
2021/04/10 08:26:10;;;;;;;1.87;1.50;;;;;;;4.74;92.11;100419.47;5012752;28;20259;-74
2021/04/10 08:28:37;;;;;;;2.10;1.90;;;;;;;4.78;92.17;100427.91;5012617;28;20245;-73
2021/04/10 08:31:04;;;;;;;3.60;1.23;;;;;;;4.74;90.99;100434.91;5012612;28;20181;-72
2021/04/10 08:33:30;;;;;;;7.13;2.20;;;;;;;4.81;90.96;100435.47;5012665;28;20176;-72
2021/04/10 08:35:58;;;;;;;2.43;2.17;;;;;;;4.77;90.60;100442.47;5012098;28;20621;-73
2021/04/10 08:38:29;;;;;;;2.53;1.53;;;;;;;4.82;90.34;100444.41;5012356;28;20284;-73
2021/04/10 08:41:02;;;;;;;3.47;1.83;;;;;;;4.86;90.72;100438.16;5012422;28;20184;-72
2021/04/10 08:43:31;;;;;;;0.90;0.90;;;;;;;4.81;90.22;100443.59;5012509;28;20208;-72
2021/04/10 08:45:58;;;;;;;2.17;1.33;;;;;;;4.90;90.25;100443.81;5012363;28;20247;-72
2021/04/10 08:48:23;;;;;;;4.70;1.40;;;;;;;4.85;89.34;100451.97;5012106;28;20180;-74
2021/04/10 08:50:52;;;;;;;2.20;1.87;;;;;;;4.88;89.27;100452.22;5012253;28;20207;-72
2021/04/10 08:53:22;;;;;;;4.50;2.07;;;;;;;4.97;89.88;100466.84;5011763;28;20177;-72
2021/04/10 08:55:49;;;;;;;6.23;1.87;;;;;;;4.88;89.39;100467.66;5011363;28;20251;-74
2021/04/10 08:58:41;;;;;;;1.80;1.70;;;;;;;4.96;89.76;100465.22;5010792;28;20556;-72
2021/04/10 09:01:31;;;;;;;2.37;1.40;;;;;;;4.93;89.80;100465.75;5010647;28;20185;-73
2021/04/10 09:03:56;;;;;;;1.67;1.30;;;;;;;5.03;89.69;100470.31;5012055;28;20206;-72
2021/04/10 09:06:31;;;;;;;6.73;2.23;;;;;;;4.97;89.21;100474.13;5011619;28;20265;-73
2021/04/10 09:09:12;;;;;;;4.33;2.23;;;;;;;4.94;89.15;100474.69;5011421;28;20180;-75
2021/04/10 09:11:38;;;;;;;5.63;1.77;;;;;;;4.95;89.11;100470.91;5011497;28;20183;-72
2021/04/10 09:14:04;;;;;;;4.80;1.40;;;;;;;5.08;88.79;100475.75;5011453;28;20211;-72
2021/04/10 09:16:33;;;;;;;3.63;2.30;;;;;;;5.18;88.42;100477.59;5011550;28;20709;-72
2021/04/10 09:19:10;;;;;;;1.90;1.80;;;;;;;5.33;88.08;100481.09;5011117;28;20865;-72
2021/04/10 09:21:39;;;;;;;1.90;1.80;;;;;;;5.43;87.44;100482.97;5011236;28;20181;-72
2021/04/10 09:24:25;;;;;;;2.20;1.70;;;;;;;5.54;87.68;100478.31;5026135;28;20271;-73
2021/04/10 09:27:24;;;;;;;4.03;3.50;;;;;;;5.55;87.90;100479.94;5011185;28;20176;-73
2021/04/10 09:29:59;;;;;;;5.23;3.10;;;;;;;5.38;87.01;100472.97;5010443;28;20185;-71
2021/04/10 09:32:29;;;;;;;1.63;1.53;;;;;;;5.38;87.24;100483.00;5011070;28;20259;-73
2021/04/10 09:34:56;;;;;;;2.30;2.10;;;;;;;5.41;86.82;100487.03;5011034;28;20227;-72
2021/04/10 09:37:22;;;;;;;3.67;2.00;;;;;;;5.75;86.40;100493.41;5011325;28;20172;-72
2021/04/10 09:40:03;;;;;;;6.00;2.43;;;;;;;5.91;86.61;100494.16;5010769;28;20198;-72
2021/04/10 09:45:24;;;;;;;2.47;2.10;;;;;;;5.70;85.74;100496.13;5008788;28;20172;-72
2021/04/10 09:47:56;;;;;;;7.47;1.83;;;;;;;5.71;84.63;100494.25;4989252;28;20556;-72
2021/04/10 09:50:44;;;;;;;2.43;2.30;;;;;;;5.95;84.97;100498.78;4991215;28;20207;-73
2021/04/10 09:53:21;;;;;;;3.03;2.77;;;;;;;6.09;83.66;100498.16;4990047;28;20184;-75
2021/04/10 09:55:56;;;;;;;5.37;2.80;;;;;;;6.14;82.93;100498.94;4989456;28;20181;-72
2021/04/10 09:58:21;;;;;;;2.87;2.10;;;;;;;6.15;83.32;100497.03;4991461;28;20228;-72
2021/04/10 10:00:51;;;;;;;6.33;2.53;;;;;;;6.26;82.94;100502.13;4991580;28;20703;-72
2021/04/10 10:03:18;;;;;;;2.07;1.80;;;;;;;6.10;82.29;100500.59;4991427;28;20177;-72
2021/04/10 10:05:46;;;;;;;4.40;2.60;;;;;;;6.10;82.69;100488.94;4991569;28;20667;-72
2021/04/10 10:08:13;;;;;;;4.13;2.37;;;;;;;5.95;82.88;100487.13;4991371;28;20173;-76
2021/04/10 10:10:45;;;;;;;4.63;2.07;;;;;;;6.24;83.44;100484.50;4991440;28;20185;-72
2021/04/10 10:13:16;;;;;;;1.50;1.20;;;;;;;6.24;82.13;100490.72;4991415;28;20184;-72
2021/04/10 10:15:43;;;;;;;2.97;2.70;;;;;;;6.51;82.53;100486.75;4991759;28;20256;-72
2021/04/10 10:18:20;;;;;;;3.30;3.10;;;;;;;6.52;82.02;100486.47;4991359;28;20301;-73
2021/04/10 10:21:19;;;;;;;2.33;2.13;;;;;;;6.46;81.07;100489.50;4991560;28;20183;-73
2021/04/10 10:23:56;;;;;;;4.20;2.67;;;;;;;6.33;80.65;100487.41;4990612;28;20193;-74
2021/04/10 10:26:26;;;;;;;2.73;2.53;;;;;;;6.33;80.81;100490.13;4991325;28;20865;-72
2021/04/10 10:29:06;;;;;;;3.40;2.43;;;;;;;6.37;81.24;100502.88;4991182;28;20312;-73
2021/04/10 10:31:41;;;;;;;3.23;2.93;;;;;;;6.44;81.32;100497.09;4989853;28;20164;-73
2021/04/10 10:34:09;;;;;;;3.50;3.20;;;;;;;6.29;81.99;100497.22;4989590;28;20204;-72
2021/04/10 10:36:37;;;;;;;4.83;2.97;;;;;;;6.40;81.12;100488.72;4989888;28;20182;-74
2021/04/10 10:39:05;;;;;;;4.30;3.67;;;;;;;6.52;81.65;100491.91;4989664;28;20208;-75
2021/04/10 10:41:41;;;;;;;4.27;3.00;;;;;;;6.54;81.13;100492.41;4989062;28;20181;-72
2021/04/10 10:44:06;;;;;;;3.43;2.93;;;;;;;6.47;80.01;100496.53;4990849;28;20204;-72
2021/04/10 10:46:31;;;;;;;2.30;1.90;;;;;;;6.46;79.83;100495.72;4991230;28;20224;-72
2021/04/10 10:48:57;;;;;;;3.60;2.60;;;;;;;6.67;80.35;100496.41;4990914;28;20173;-71
2021/04/10 10:51:24;;;;;;;3.57;3.27;;;;;;;6.73;80.01;100499.88;4991039;28;20233;-73
2021/04/10 10:53:52;;;;;;;6.93;2.57;;;;;;;6.75;80.48;100492.25;4990664;28;20228;-72
2021/04/10 10:56:26;;;;;;;2.67;1.93;;;;;;;6.93;79.47;100488.81;4990834;28;20176;-72
2021/04/10 10:58:51;;;;;;;3.17;2.70;;;;;;;7.14;78.73;100490.25;4990767;28;20684;-72
2021/04/10 11:01:19;;;;;;;4.97;2.17;;;;;;;6.66;79.42;100494.78;4994169;28;20170;-71
2021/04/10 11:03:48;;;;;;;4.50;2.27;;;;;;;6.81;80.07;100499.28;4993937;28;20173;-72
2021/04/10 11:06:15;;;;;;;3.77;3.30;;;;;;;6.84;80.71;100487.84;4994289;28;20692;-74
2021/04/10 11:08:41;;;;;;;3.20;2.20;;;;;;;7.07;79.59;100481.63;4994081;28;20180;-72
2021/04/10 11:11:06;;;;;;;1.90;1.80;;;;;;;7.21;78.67;100483.66;4993980;28;20177;-72
2021/04/10 11:13:32;;;;;;;5.30;1.90;;;;;;;7.29;77.98;100485.75;4993998;28;20205;-73
2021/04/10 11:15:58;;;;;;;1.53;1.43;;;;;;;6.85;77.31;100476.69;4994073;28;20220;-77
2021/04/10 11:18:25;;;;;;;7.60;1.80;;;;;;;6.88;77.40;100478.00;4993804;28;20209;-71
2021/04/10 11:20:51;;;;;;;3.40;2.03;;;;;;;6.73;77.40;100483.56;4994234;28;20319;-72
2021/04/10 11:23:17;;;;;;;5.07;2.00;;;;;;;6.81;77.97;100475.63;4993710;28;20639;-73
2021/04/10 11:25:47;;;;;;;4.17;1.90;;;;;;;6.99;78.55;100484.97;4993257;28;20595;-76
2021/04/10 11:28:32;;;;;;;2.23;2.03;;;;;;;6.78;78.23;100484.34;4992977;28;20185;-74
2021/04/10 11:31:05;;;;;;;4.87;2.03;;;;;;;6.71;78.65;100475.72;4974692;28;20185;-78
2021/04/10 11:33:32;;;;;;;2.60;2.40;;;;;;;6.94;79.13;100485.00;4985823;28;20184;-73
2021/04/10 11:35:58;;;;;;;3.53;3.33;;;;;;;7.03;79.06;100480.56;4992832;28;20174;-78
2021/04/10 11:38:23;;;;;;;2.87;2.40;;;;;;;7.06;78.50;100476.47;4994347;28;20651;-78
2021/04/10 11:40:48;;;;;;;2.97;2.37;;;;;;;7.22;79.07;100475.22;4994043;28;20554;-77
2021/04/10 11:43:14;;;;;;;3.03;2.73;;;;;;;7.21;78.62;100468.16;4993955;28;20216;-73